Time;durP1;ratioP1;P1;durP2;ratioP2;P2;SDS_P1;SDS_P2;PMS_P1;PMS_P2;Temp;Humidity;BMP_temperature;BMP_pressure;BME280_temperature;BME280_humidity;BME280_pressure;Samples;Min_cycle;Max_cycle;Signal;HPM_P1;HPM_P2
2020/12/10 00:00:46;;;;;;;16.65;9.73;;;3.40;92.00;;;;;;2054496;28;20027;-81
2020/12/10 00:01:48;;;;;;;16.13;9.15;;;3.40;92.00;;;;;;2048210;29;20034;-81
2020/12/10 00:02:48;;;;;;;16.13;9.52;;;3.30;92.00;;;;;;2039675;28;20036;-81
2020/12/10 00:03:49;;;;;;;16.33;9.57;;;3.40;92.00;;;;;;2047841;28;20110;-81
2020/12/10 00:04:50;;;;;;;15.93;9.20;;;3.30;92.00;;;;;;2047877;28;20120;-82
2020/12/10 00:05:50;;;;;;;16.23;9.40;;;3.30;92.00;;;;;;2048149;28;20035;-81
2020/12/10 00:06:51;;;;;;;15.25;9.13;;;3.40;92.00;;;;;;2051735;28;20038;-81
2020/12/10 00:07:52;;;;;;;14.98;8.85;;;3.30;92.00;;;;;;2054198;28;20022;-82
2020/12/10 00:08:52;;;;;;;14.65;8.88;;;3.30;92.00;;;;;;2039235;29;20494;-82
2020/12/10 00:09:54;;;;;;;16.08;9.10;;;3.30;92.00;;;;;;2039002;29;20028;-81
2020/12/10 00:10:55;;;;;;;15.18;9.10;;;3.30;92.00;;;;;;2042699;29;20079;-81
2020/12/10 00:11:56;;;;;;;14.73;8.98;;;3.30;92.00;;;;;;2043211;28;20035;-81
2020/12/10 00:12:57;;;;;;;13.85;8.80;;;3.30;92.00;;;;;;2053725;28;20553;-81
2020/12/10 00:13:57;;;;;;;18.25;9.05;;;3.20;92.00;;;;;;2055734;28;20545;-81
2020/12/10 00:14:58;;;;;;;15.70;8.88;;;3.20;92.00;;;;;;2040235;29;20031;-81
2020/12/10 00:15:58;;;;;;;15.40;9.15;;;3.20;92.10;;;;;;2021911;29;20039;-82
2020/12/10 00:16:59;;;;;;;15.70;9.60;;;3.10;92.10;;;;;;2035285;29;20154;-81
2020/12/10 00:18:00;;;;;;;15.45;9.05;;;3.10;92.10;;;;;;2041752;29;20042;-82
2020/12/10 00:19:00;;;;;;;16.55;9.70;;;3.10;92.10;;;;;;2051694;28;20031;-81
2020/12/10 00:20:01;;;;;;;16.02;9.40;;;3.10;92.10;;;;;;2043718;29;20479;-81
2020/12/10 00:21:02;;;;;;;17.35;9.43;;;3.10;92.10;;;;;;2044810;29;20223;-81
2020/12/10 00:22:02;;;;;;;15.52;9.15;;;3.10;92.10;;;;;;2044722;28;20111;-81
2020/12/10 00:23:03;;;;;;;15.75;9.10;;;3.00;92.20;;;;;;2042788;29;20043;-81
2020/12/10 00:24:03;;;;;;;14.77;8.77;;;3.00;92.20;;;;;;2047900;28;20536;-82
2020/12/10 00:25:05;;;;;;;18.95;9.88;;;3.00;92.20;;;;;;2047473;29;20047;-81
2020/12/10 00:26:06;;;;;;;16.60;9.38;;;3.00;92.20;;;;;;2038726;29;20035;-81
2020/12/10 00:27:06;;;;;;;16.75;9.15;;;2.90;92.20;;;;;;2045733;29;20454;-81
2020/12/10 00:28:07;;;;;;;14.63;8.65;;;2.90;92.20;;;;;;2044484;28;20035;-81
2020/12/10 00:29:08;;;;;;;14.98;8.93;;;2.90;92.20;;;;;;2052386;28;20027;-82
2020/12/10 00:30:10;;;;;;;16.35;9.45;;;2.90;92.30;;;;;;2049392;28;20528;-81
2020/12/10 00:31:11;;;;;;;15.23;8.95;;;2.90;92.30;;;;;;2057825;28;20042;-81
2020/12/10 00:32:13;;;;;;;15.50;8.88;;;2.90;92.30;;;;;;2056251;28;20069;-81
2020/12/10 00:33:14;;;;;;;15.98;9.95;;;2.80;92.50;;;;;;2055179;28;20042;-81
2020/12/10 00:34:14;;;;;;;14.60;8.80;;;2.80;92.30;;;;;;2032703;29;20043;-81
2020/12/10 00:35:15;;;;;;;15.60;8.73;;;2.80;92.30;;;;;;2039905;29;20436;-82
2020/12/10 00:36:16;;;;;;;16.33;9.77;;;2.80;92.30;;;;;;2047610;29;20035;-82
2020/12/10 00:37:17;;;;;;;15.60;8.85;;;2.80;92.30;;;;;;2044281;28;20064;-81
2020/12/10 00:38:17;;;;;;;15.73;9.02;;;2.70;92.30;;;;;;2049141;28;20079;-81
2020/12/10 00:39:18;;;;;;;14.80;9.15;;;2.80;92.40;;;;;;2044834;28;20023;-81
2020/12/10 00:40:19;;;;;;;16.00;8.98;;;2.70;92.30;;;;;;2036338;29;20040;-81
2020/12/10 00:41:20;;;;;;;15.27;9.23;;;2.70;92.40;;;;;;2051473;28;20118;-81
2020/12/10 00:42:20;;;;;;;16.00;9.43;;;2.70;92.30;;;;;;2057319;28;20046;-81
2020/12/10 00:43:21;;;;;;;16.05;9.35;;;2.70;92.30;;;;;;2062223;28;20141;-81
2020/12/10 00:44:22;;;;;;;15.02;9.32;;;2.70;92.30;;;;;;2055593;28;20027;-81
2020/12/10 00:45:22;;;;;;;15.13;9.27;;;2.70;92.30;;;;;;2039461;29;20087;-81
2020/12/10 00:46:23;;;;;;;15.25;9.38;;;2.70;92.30;;;;;;2035085;29;20547;-81
2020/12/10 00:47:23;;;;;;;16.77;9.20;;;2.70;92.30;;;;;;2048380;28;20035;-81
2020/12/10 00:48:24;;;;;;;15.30;9.65;;;2.70;92.30;;;;;;2045921;28;20031;-81
2020/12/10 00:49:25;;;;;;;15.65;9.48;;;2.70;92.30;;;;;;2039888;29;20035;-81
2020/12/10 00:50:26;;;;;;;15.27;8.65;;;2.70;92.30;;;;;;2053092;28;20042;-81
2020/12/10 00:51:26;;;;;;;15.77;9.10;;;2.70;92.30;;;;;;2049919;28;20134;-81
2020/12/10 00:52:27;;;;;;;14.75;8.77;;;2.70;92.30;;;;;;2055368;28;20038;-81
2020/12/10 00:53:28;;;;;;;16.35;9.48;;;2.60;92.30;;;;;;2064187;28;20128;-81
2020/12/10 00:54:29;;;;;;;15.05;9.18;;;2.60;92.30;;;;;;2045794;29;20023;-81
2020/12/10 00:55:33;;;;;;;14.63;9.38;;;2.60;92.60;;;;;;2046700;29;20085;-83
2020/12/10 00:56:44;;;;;;;15.73;9.50;;;2.60;92.30;;;;;;2062151;28;20413;-83
2020/12/10 00:57:45;;;;;;;16.63;9.48;;;2.60;92.30;;;;;;2057213;28;20031;-83
2020/12/10 00:58:45;;;;;;;15.13;9.07;;;2.50;92.30;;;;;;2056797;28;20031;-81
2020/12/10 00:59:49;;;;;;;15.07;8.80;;;2.50;92.30;;;;;;2043052;29;20055;-83
2020/12/10 01:00:53;;;;;;;13.20;8.65;;;2.50;92.30;;;;;;2041002;28;20031;-82
2020/12/10 01:02:02;;;;;;;15.55;9.00;;;2.50;92.30;;;;;;2045384;28;20066;-85
2020/12/10 01:03:02;;;;;;;14.57;8.52;;;2.50;92.40;;;;;;2042337;29;20036;-83
2020/12/10 01:04:05;;;;;;;15.32;8.63;;;2.50;92.60;;;;;;2046056;29;20044;-85
2020/12/10 01:05:06;;;;;;;14.13;8.45;;;2.50;92.40;;;;;;2038661;29;20029;-84
2020/12/10 01:06:11;;;;;;;15.07;8.90;;;2.50;92.60;;;;;;2036495;29;20029;-84
2020/12/10 01:07:15;;;;;;;17.10;10.05;;;2.40;92.40;;;;;;2049564;28;20039;-83
2020/12/10 01:08:45;;;;;;;16.42;9.55;;;2.40;92.40;;;;;;2057613;28;20110;-84
2020/12/10 01:09:52;;;;;;;15.43;9.13;;;2.40;92.40;;;;;;2056697;28;20031;-84
2020/12/10 01:10:55;;;;;;;14.60;8.60;;;2.40;92.40;;;;;;2047238;28;20032;-84
2020/12/10 01:11:56;;;;;;;15.88;8.90;;;2.40;92.40;;;;;;2046115;28;20071;-84
2020/12/10 01:12:56;;;;;;;16.92;9.52;;;2.30;92.40;;;;;;2049412;29;20410;-83
2020/12/10 01:14:01;;;;;;;15.63;8.85;;;2.30;92.40;;;;;;2056558;28;20058;-83
2020/12/10 01:15:02;;;;;;;15.95;9.73;;;2.30;92.40;;;;;;2049014;28;20040;-83
2020/12/10 01:16:11;;;;;;;15.48;9.02;;;2.30;92.40;;;;;;2054939;28;20039;-84
2020/12/10 01:17:12;;;;;;;16.75;9.80;;;2.30;92.40;;;;;;2049445;28;20032;-83
2020/12/10 01:18:13;;;;;;;16.73;10.18;;;2.30;92.40;;;;;;2047141;29;20068;-83
2020/12/10 01:19:17;;;;;;;17.60;10.38;;;2.20;92.40;;;;;;2042424;28;20032;-84
2020/12/10 01:20:18;;;;;;;16.55;10.35;;;2.30;92.50;;;;;;2043303;29;20047;-84
2020/12/10 01:21:32;;;;;;;17.38;10.02;;;2.20;92.40;;;;;;2057263;28;20031;-84
2020/12/10 01:22:33;;;;;;;19.75;11.10;;;2.20;92.40;;;;;;2050069;28;20035;-83
2020/12/10 01:23:35;;;;;;;16.77;10.25;;;2.20;92.40;;;;;;2026725;29;20088;-83
2020/12/10 01:24:39;;;;;;;17.65;10.30;;;2.20;92.40;;;;;;2042589;29;20135;-84
2020/12/10 01:25:40;;;;;;;17.35;10.27;;;2.20;92.40;;;;;;2040940;29;20079;-83
2020/12/10 01:26:44;;;;;;;18.30;10.63;;;2.20;92.40;;;;;;2041316;29;20031;-83
2020/12/10 01:27:47;;;;;;;17.92;10.68;;;2.20;92.40;;;;;;2026037;29;20021;-82
2020/12/10 01:28:48;;;;;;;18.50;10.48;;;2.20;92.40;;;;;;2027999;29;20029;-82
2020/12/10 01:29:49;;;;;;;17.13;10.35;;;2.20;92.40;;;;;;2045395;29;20375;-82
2020/12/10 01:30:49;;;;;;;14.93;9.38;;;2.20;92.40;;;;;;2048663;29;20502;-82
2020/12/10 01:31:51;;;;;;;16.98;10.45;;;2.20;92.40;;;;;;2047511;28;20768;-82
2020/12/10 01:32:51;;;;;;;17.33;10.10;;;2.20;92.40;;;;;;2050880;28;20133;-82
2020/12/10 01:33:52;;;;;;;16.27;10.18;;;2.20;92.40;;;;;;2051546;28;20024;-82
2020/12/10 01:34:52;;;;;;;17.08;10.55;;;2.20;92.70;;;;;;2053557;28;20099;-81
2020/12/10 01:35:53;;;;;;;14.85;9.40;;;2.20;92.40;;;;;;2059097;28;20031;-84
2020/12/10 01:36:54;;;;;;;16.70;9.98;;;2.20;92.40;;;;;;2047322;29;20035;-85
2020/12/10 01:37:58;;;;;;;17.02;10.35;;;2.20;92.40;;;;;;2039190;29;20059;-82
2020/12/10 01:38:59;;;;;;;15.68;9.45;;;2.20;92.40;;;;;;2046490;29;20067;-85
2020/12/10 01:40:01;;;;;;;16.92;10.40;;;2.20;92.40;;;;;;2048656;29;20054;-85
2020/12/10 01:41:02;;;;;;;16.38;9.63;;;2.20;92.40;;;;;;2047031;28;20067;-84
2020/12/10 01:42:05;;;;;;;16.67;9.70;;;2.20;92.40;;;;;;2049363;29;20028;-85
2020/12/10 01:43:06;;;;;;;15.35;9.68;;;2.20;92.40;;;;;;2048607;28;20506;-83
2020/12/10 01:44:13;;;;;;;16.02;9.38;;;2.20;92.70;;;;;;2036318;28;20024;-84
2020/12/10 01:45:14;;;;;;;17.25;10.70;;;2.20;92.40;;;;;;2049232;28;20121;-83
2020/12/10 01:46:15;;;;;;;16.42;10.02;;;2.20;92.40;;;;;;2049003;28;20486;-83
2020/12/10 01:47:19;;;;;;;17.88;10.82;;;2.20;92.40;;;;;;2042004;29;20435;-84
2020/12/10 01:48:21;;;;;;;16.65;10.15;;;2.20;92.40;;;;;;2041596;28;20032;-84
2020/12/10 01:49:25;;;;;;;16.02;10.35;;;2.20;92.40;;;;;;2050295;28;20121;-83
2020/12/10 01:50:27;;;;;;;17.75;10.50;;;2.20;92.40;;;;;;2042711;28;20443;-83
2020/12/10 01:51:32;;;;;;;18.55;10.93;;;2.20;92.40;;;;;;2037386;29;20080;-86
2020/12/10 01:52:33;;;;;;;17.95;10.95;;;2.20;92.30;;;;;;2038979;29;20095;-83
2020/12/10 01:53:34;;;;;;;21.27;12.07;;;2.20;92.30;;;;;;2048591;29;20094;-84
2020/12/10 01:54:35;;;;;;;17.33;10.57;;;2.20;92.40;;;;;;2029346;29;20020;-81
2020/12/10 01:55:36;;;;;;;17.38;10.55;;;2.20;92.30;;;;;;2037199;29;20023;-81
2020/12/10 01:56:36;;;;;;;17.92;10.73;;;2.20;92.30;;;;;;2049871;28;20038;-81
2020/12/10 01:57:37;;;;;;;20.00;11.80;;;2.20;92.40;;;;;;2037956;29;20124;-81
2020/12/10 01:58:38;;;;;;;19.90;11.57;;;2.20;92.40;;;;;;2032583;29;20032;-81
2020/12/10 01:59:39;;;;;;;21.38;12.23;;;2.20;92.40;;;;;;2045531;29;20395;-81
2020/12/10 02:00:39;;;;;;;20.80;12.73;;;2.20;92.30;;;;;;2046138;28;20020;-81
2020/12/10 02:01:40;;;;;;;23.92;13.60;;;2.20;92.30;;;;;;2052443;28;20512;-82
2020/12/10 02:02:41;;;;;;;20.65;12.70;;;2.20;92.30;;;;;;2054064;28;20448;-82
2020/12/10 02:03:42;;;;;;;23.20;13.57;;;2.10;92.30;;;;;;2039465;29;20024;-81
2020/12/10 02:04:43;;;;;;;25.45;14.57;;;2.20;92.30;;;;;;2040829;28;20636;-82
2020/12/10 02:05:44;;;;;;;24.58;14.60;;;2.10;92.30;;;;;;2056696;28;20501;-81
2020/12/10 02:06:45;;;;;;;27.10;14.95;;;2.10;92.20;;;;;;2044457;28;20031;-82
2020/12/10 02:07:46;;;;;;;25.38;14.55;;;2.10;92.30;;;;;;2049439;28;20122;-81
2020/12/10 02:08:46;;;;;;;24.63;14.52;;;2.10;92.20;;;;;;2049608;28;20486;-82
2020/12/10 02:09:47;;;;;;;22.75;13.65;;;2.00;92.20;;;;;;2057019;28;20034;-82
2020/12/10 02:10:47;;;;;;;24.55;14.40;;;2.00;92.30;;;;;;2047620;28;20121;-82
2020/12/10 02:11:48;;;;;;;23.52;14.23;;;2.00;92.30;;;;;;2049827;28;20031;-81
2020/12/10 02:12:49;;;;;;;23.90;13.95;;;2.00;92.30;;;;;;2052183;28;20015;-82
2020/12/10 02:13:49;;;;;;;26.60;14.50;;;1.90;92.30;;;;;;2050819;28;20094;-82
2020/12/10 02:14:50;;;;;;;24.02;13.98;;;1.90;92.30;;;;;;2045979;28;20442;-82
2020/12/10 02:15:51;;;;;;;25.75;14.65;;;1.90;92.30;;;;;;2038964;29;20075;-81
2020/12/10 02:16:55;;;;;;;23.50;14.32;;;1.90;92.30;;;;;;2039116;29;20510;-82
2020/12/10 02:17:56;;;;;;;23.88;13.95;;;1.90;92.40;;;;;;2054439;28;20163;-81
2020/12/10 02:18:56;;;;;;;23.55;13.70;;;1.80;92.30;;;;;;2050235;28;20141;-81
2020/12/10 02:19:57;;;;;;;22.38;13.30;;;1.80;92.40;;;;;;2054411;28;20374;-81
2020/12/10 02:20:58;;;;;;;23.85;13.98;;;1.80;92.40;;;;;;2046307;29;20023;-80
2020/12/10 02:21:59;;;;;;;20.85;12.70;;;1.80;92.40;;;;;;2047661;28;20023;-81
2020/12/10 02:23:04;;;;;;;23.10;13.20;;;1.70;92.40;;;;;;2055228;28;20413;-80
2020/12/10 02:24:05;;;;;;;22.25;12.95;;;1.70;92.40;;;;;;2051377;28;20023;-80
2020/12/10 02:25:06;;;;;;;21.35;12.70;;;1.70;92.40;;;;;;2048868;28;20591;-80
2020/12/10 02:26:06;;;;;;;23.83;14.05;;;1.70;92.40;;;;;;2038576;29;20127;-80
2020/12/10 02:27:07;;;;;;;25.38;14.60;;;1.60;92.40;;;;;;2055774;28;20066;-80
2020/12/10 02:28:13;;;;;;;23.30;13.05;;;1.60;92.40;;;;;;2054032;28;20029;-80
2020/12/10 02:29:17;;;;;;;19.58;12.30;;;1.60;92.40;;;;;;2041927;28;20024;-80
2020/12/10 02:30:18;;;;;;;21.08;12.75;;;1.60;92.50;;;;;;2046307;28;20421;-80
2020/12/10 02:31:22;;;;;;;20.48;11.77;;;1.50;92.50;;;;;;2047731;28;20034;-80
2020/12/10 02:32:23;;;;;;;23.67;13.05;;;1.50;92.50;;;;;;2042642;28;20525;-80
2020/12/10 02:33:24;;;;;;;23.95;13.23;;;1.50;92.50;;;;;;2040667;29;20035;-81
2020/12/10 02:34:25;;;;;;;22.67;12.90;;;1.50;92.50;;;;;;2037388;28;20020;-80
2020/12/10 02:35:28;;;;;;;24.05;13.88;;;1.50;92.50;;;;;;2044190;29;20044;-80
2020/12/10 02:36:29;;;;;;;22.05;12.70;;;1.50;92.50;;;;;;2042590;29;20051;-81
2020/12/10 02:37:29;;;;;;;25.98;14.20;;;1.50;92.50;;;;;;2043521;28;20035;-80
2020/12/10 02:38:30;;;;;;;25.05;14.18;;;1.40;92.50;;;;;;2047522;28;20126;-80
2020/12/10 02:39:31;;;;;;;25.42;14.15;;;1.40;92.50;;;;;;2035164;29;20101;-80
2020/12/10 02:40:40;;;;;;;24.73;13.65;;;1.40;92.50;;;;;;2047930;29;20103;-80
2020/12/10 02:41:41;;;;;;;24.45;14.10;;;1.40;92.60;;;;;;2054515;28;20524;-80
2020/12/10 02:42:41;;;;;;;21.15;13.00;;;1.40;92.60;;;;;;2055077;28;20118;-80
2020/12/10 02:43:42;;;;;;;24.88;14.20;;;1.30;92.80;;;;;;2051782;28;20074;-80
2020/12/10 02:44:42;;;;;;;22.52;13.10;;;1.30;92.50;;;;;;2045320;29;20186;-81
2020/12/10 02:45:43;;;;;;;23.08;12.82;;;1.30;92.50;;;;;;2048914;28;20043;-81
2020/12/10 02:46:44;;;;;;;21.15;13.13;;;1.30;92.50;;;;;;2036028;29;20028;-81
2020/12/10 02:47:45;;;;;;;20.85;11.90;;;1.30;92.50;;;;;;2028604;29;20533;-81
2020/12/10 02:48:46;;;;;;;23.15;13.05;;;1.30;92.60;;;;;;2048789;28;20019;-81
2020/12/10 02:49:47;;;;;;;19.65;12.00;;;1.30;92.90;;;;;;2053867;28;20485;-81
2020/12/10 02:50:48;;;;;;;23.73;13.45;;;1.30;92.60;;;;;;2051611;28;20431;-81
2020/12/10 02:51:48;;;;;;;21.58;12.15;;;1.30;92.60;;;;;;2048117;29;20031;-79
2020/12/10 02:52:49;;;;;;;23.00;12.90;;;1.30;92.60;;;;;;2039463;29;20458;-81
2020/12/10 02:53:50;;;;;;;21.25;12.93;;;1.30;92.60;;;;;;2037712;29;20016;-81
2020/12/10 02:54:51;;;;;;;22.77;13.18;;;1.20;92.50;;;;;;2048920;28;20122;-81
2020/12/10 02:55:51;;;;;;;21.90;12.70;;;1.20;92.60;;;;;;2047835;28;20115;-81
2020/12/10 02:56:52;;;;;;;21.77;12.77;;;1.20;92.60;;;;;;2037009;29;20028;-81
2020/12/10 02:57:52;;;;;;;23.45;13.60;;;1.20;92.50;;;;;;2033902;29;20035;-81
2020/12/10 02:58:53;;;;;;;24.73;13.77;;;1.20;92.50;;;;;;2039966;29;20479;-81
2020/12/10 02:59:54;;;;;;;23.50;13.85;;;1.20;92.50;;;;;;2048972;29;20059;-81
2020/12/10 03:00:55;;;;;;;24.33;14.40;;;1.20;92.50;;;;;;2049724;28;20028;-81
2020/12/10 03:01:56;;;;;;;25.50;14.60;;;1.20;92.50;;;;;;2049879;28;20121;-81
2020/12/10 03:02:56;;;;;;;26.17;14.65;;;1.20;92.50;;;;;;2051732;28;20106;-81
2020/12/10 03:03:57;;;;;;;27.42;13.98;;;1.20;92.50;;;;;;2052902;28;20082;-81
2020/12/10 03:04:58;;;;;;;26.17;14.57;;;1.20;92.50;;;;;;2052253;28;20036;-81
2020/12/10 03:05:58;;;;;;;25.73;14.70;;;1.20;92.50;;;;;;2053982;28;20038;-80
2020/12/10 03:06:59;;;;;;;22.95;13.65;;;1.20;92.50;;;;;;2057052;28;20121;-80
2020/12/10 03:08:00;;;;;;;25.30;13.65;;;1.10;92.50;;;;;;2053365;28;20118;-80
2020/12/10 03:09:00;;;;;;;24.75;14.05;;;1.10;92.50;;;;;;2056140;28;20288;-80
2020/12/10 03:10:03;;;;;;;22.70;13.30;;;1.10;92.50;;;;;;2055211;28;20027;-80
2020/12/10 03:11:05;;;;;;;22.88;12.45;;;1.10;92.50;;;;;;2053115;28;20084;-80
2020/12/10 03:12:05;;;;;;;23.58;12.93;;;1.10;92.50;;;;;;2047827;28;20506;-80
2020/12/10 03:13:06;;;;;;;22.60;12.85;;;1.10;92.50;;;;;;2050395;28;20035;-81
2020/12/10 03:14:07;;;;;;;22.25;12.40;;;1.10;92.50;;;;;;2064088;28;20018;-81
2020/12/10 03:15:08;;;;;;;20.52;11.88;;;1.10;92.50;;;;;;2056187;28;20058;-80
2020/12/10 03:16:08;;;;;;;21.85;12.32;;;1.00;92.60;;;;;;2040798;29;20469;-81
2020/12/10 03:17:09;;;;;;;22.48;12.43;;;1.00;92.60;;;;;;2048873;29;20031;-81
2020/12/10 03:18:10;;;;;;;23.88;12.98;;;1.00;92.60;;;;;;2050777;28;20024;-80
2020/12/10 03:19:10;;;;;;;19.90;11.65;;;1.00;92.60;;;;;;2048953;29;20042;-81
2020/12/10 03:20:11;;;;;;;20.17;11.70;;;1.00;92.60;;;;;;2045809;29;20032;-81
2020/12/10 03:21:12;;;;;;;24.25;13.30;;;1.00;92.60;;;;;;2040412;29;20046;-81
2020/12/10 03:22:14;;;;;;;20.42;11.55;;;1.00;92.60;;;;;;2038598;29;20036;-80
2020/12/10 03:23:14;;;;;;;22.20;12.45;;;1.00;92.50;;;;;;2032360;29;20048;-81
2020/12/10 03:24:15;;;;;;;19.05;11.80;;;1.00;92.60;;;;;;2040081;29;20028;-81
2020/12/10 03:25:15;;;;;;;18.60;11.27;;;1.00;92.60;;;;;;2027225;29;20531;-81
2020/12/10 03:26:16;;;;;;;21.30;11.90;;;1.00;92.60;;;;;;2033271;29;20088;-81
2020/12/10 03:27:17;;;;;;;20.45;12.10;;;1.00;92.60;;;;;;2035063;29;20059;-80
2020/12/10 03:28:17;;;;;;;19.55;10.60;;;1.00;92.60;;;;;;2046640;28;20027;-80
2020/12/10 03:29:18;;;;;;;22.05;11.43;;;1.00;92.60;;;;;;2057088;28;20441;-81
2020/12/10 03:30:19;;;;;;;20.55;11.43;;;1.00;92.60;;;;;;2055494;28;20477;-81
2020/12/10 03:31:19;;;;;;;20.75;11.40;;;0.90;92.50;;;;;;2047330;28;20062;-80
2020/12/10 03:32:20;;;;;;;19.60;10.77;;;1.00;92.60;;;;;;2031919;29;20060;-80
2020/12/10 03:33:21;;;;;;;19.17;11.23;;;1.00;92.60;;;;;;2040048;29;20032;-80
2020/12/10 03:34:22;;;;;;;23.58;12.15;;;1.00;92.60;;;;;;2041030;29;20027;-81
2020/12/10 03:35:23;;;;;;;20.40;10.95;;;1.00;92.60;;;;;;2047175;28;20444;-80
2020/12/10 03:36:23;;;;;;;18.48;10.73;;;1.00;92.60;;;;;;2036537;29;20036;-80
2020/12/10 03:37:24;;;;;;;19.77;11.30;;;0.90;92.50;;;;;;2047371;28;20425;-80
2020/12/10 03:38:24;;;;;;;22.52;11.68;;;1.00;92.60;;;;;;2054501;28;20121;-80
2020/12/10 03:39:27;;;;;;;19.60;10.80;;;0.90;92.50;;;;;;2048430;28;20474;-80
2020/12/10 03:40:28;;;;;;;22.67;12.05;;;0.90;92.50;;;;;;2047879;28;20150;-80
2020/12/10 03:41:28;;;;;;;23.02;12.82;;;0.90;92.60;;;;;;2048322;29;20509;-80
2020/12/10 03:42:29;;;;;;;23.98;12.65;;;0.90;92.50;;;;;;2052972;28;20078;-80
2020/12/10 03:43:29;;;;;;;24.05;12.88;;;0.90;92.50;;;;;;2056144;28;20413;-80
2020/12/10 03:44:30;;;;;;;22.88;13.20;;;0.90;92.50;;;;;;2052550;28;20031;-80
2020/12/10 03:45:33;;;;;;;22.38;12.40;;;0.80;92.50;;;;;;2045208;28;20482;-80
2020/12/10 03:46:34;;;;;;;21.45;11.65;;;0.80;92.50;;;;;;2048407;28;20039;-81
2020/12/10 03:47:35;;;;;;;23.95;12.95;;;0.80;92.50;;;;;;2048613;29;20037;-80
2020/12/10 03:48:35;;;;;;;23.30;12.40;;;0.80;92.60;;;;;;2039172;29;20024;-80
2020/12/10 03:49:36;;;;;;;20.77;12.15;;;0.80;92.60;;;;;;2039005;29;20032;-81
2020/12/10 03:50:37;;;;;;;23.27;12.38;;;0.80;92.60;;;;;;2047914;28;20034;-81
2020/12/10 03:51:38;;;;;;;20.13;11.55;;;0.80;92.60;;;;;;2042359;28;20126;-81
2020/12/10 03:52:38;;;;;;;20.83;11.10;;;0.80;92.60;;;;;;2056785;28;20106;-80
2020/12/10 03:53:39;;;;;;;20.08;10.93;;;0.80;92.60;;;;;;2053904;28;20034;-80
2020/12/10 03:54:39;;;;;;;20.95;11.70;;;0.80;92.60;;;;;;2048867;28;20556;-81
2020/12/10 03:55:40;;;;;;;20.25;11.48;;;0.80;92.60;;;;;;2046575;28;20526;-80
2020/12/10 03:56:41;;;;;;;19.85;11.55;;;0.80;92.60;;;;;;2048732;28;20035;-80
2020/12/10 03:57:41;;;;;;;22.33;11.30;;;0.80;92.60;;;;;;2040604;29;20046;-80
2020/12/10 03:58:42;;;;;;;21.92;12.93;;;0.80;92.60;;;;;;2039076;29;20058;-81
2020/12/10 03:59:43;;;;;;;21.52;11.65;;;0.80;92.60;;;;;;2032885;29;20523;-80
2020/12/10 04:00:43;;;;;;;20.88;12.20;;;0.80;92.60;;;;;;2046028;28;20415;-81
2020/12/10 04:01:45;;;;;;;20.67;11.50;;;0.80;92.60;;;;;;2048882;28;20101;-81
2020/12/10 04:02:46;;;;;;;21.23;11.60;;;0.80;92.80;;;;;;2045571;29;20027;-81
2020/12/10 04:03:47;;;;;;;19.92;11.95;;;0.80;92.60;;;;;;2046983;28;20047;-80
2020/12/10 04:04:49;;;;;;;21.60;11.73;;;0.80;92.60;;;;;;2054366;28;20023;-80
2020/12/10 04:05:50;;;;;;;22.92;12.80;;;0.80;92.60;;;;;;2050850;28;20460;-80
2020/12/10 04:06:50;;;;;;;20.73;12.02;;;0.80;92.50;;;;;;2056475;28;20134;-81
2020/12/10 04:07:51;;;;;;;22.77;12.38;;;0.80;92.50;;;;;;2049968;28;20033;-81
2020/12/10 04:08:52;;;;;;;22.65;12.98;;;0.80;92.50;;;;;;2051862;28;20027;-81
2020/12/10 04:09:53;;;;;;;22.35;12.30;;;0.80;92.50;;;;;;2040535;28;20034;-80
2020/12/10 04:10:53;;;;;;;20.67;11.82;;;0.80;92.50;;;;;;2046553;28;20504;-81
2020/12/10 04:11:54;;;;;;;20.33;11.20;;;0.80;92.50;;;;;;2040475;29;20031;-81
2020/12/10 04:12:55;;;;;;;20.73;12.05;;;0.80;92.50;;;;;;2038980;29;20047;-81
2020/12/10 04:13:55;;;;;;;21.38;11.70;;;0.80;92.50;;;;;;2048596;28;20473;-81
2020/12/10 04:14:56;;;;;;;21.38;11.55;;;0.80;92.70;;;;;;2041663;28;20114;-81
2020/12/10 04:16:00;;;;;;;20.23;11.50;;;0.80;92.50;;;;;;2040398;29;20036;-81
2020/12/10 04:17:00;;;;;;;20.40;10.93;;;0.80;92.50;;;;;;2048285;28;20118;-80
2020/12/10 04:18:01;;;;;;;21.20;12.07;;;0.80;92.50;;;;;;2048094;28;20584;-80
2020/12/10 04:19:02;;;;;;;22.80;12.75;;;0.80;92.50;;;;;;2033595;29;20115;-80
2020/12/10 04:20:03;;;;;;;20.67;11.88;;;0.80;92.50;;;;;;2038705;29;20031;-80
2020/12/10 04:21:05;;;;;;;22.02;12.70;;;0.80;92.50;;;;;;2032417;29;20024;-80
2020/12/10 04:22:05;;;;;;;23.33;13.10;;;0.80;92.50;;;;;;2039891;28;20031;-81
2020/12/10 04:23:06;;;;;;;21.55;11.35;;;0.70;92.40;;;;;;2054673;28;20067;-80
2020/12/10 04:24:07;;;;;;;21.73;12.23;;;0.80;92.50;;;;;;2041370;29;20378;-81
2020/12/10 04:25:07;;;;;;;19.75;11.35;;;0.70;92.40;;;;;;2048051;28;20486;-81
2020/12/10 04:26:09;;;;;;;21.45;12.32;;;0.70;92.50;;;;;;2054260;28;20114;-81
2020/12/10 04:27:09;;;;;;;22.88;12.88;;;0.70;92.50;;;;;;2040435;29;20115;-80
2020/12/10 04:28:10;;;;;;;21.13;12.13;;;0.70;92.40;;;;;;2039546;29;20530;-81
2020/12/10 04:29:13;;;;;;;24.10;12.43;;;0.70;92.50;;;;;;2055074;28;20039;-80
2020/12/10 04:30:20;;;;;;;21.70;11.70;;;0.70;92.50;;;;;;2045292;29;20449;-81
2020/12/10 04:31:21;;;;;;;21.33;12.15;;;0.70;92.50;;;;;;2034004;29;20094;-81
2020/12/10 04:32:22;;;;;;;22.70;12.45;;;0.70;92.50;;;;;;2042181;28;20063;-81
2020/12/10 04:33:22;;;;;;;22.83;12.93;;;0.70;92.50;;;;;;2039508;29;20627;-80
2020/12/10 04:34:23;;;;;;;21.90;12.15;;;0.70;92.50;;;;;;2046371;28;20027;-81
2020/12/10 04:35:23;;;;;;;24.95;13.60;;;0.70;92.40;;;;;;2047003;28;20047;-80
2020/12/10 04:36:24;;;;;;;21.35;12.18;;;0.70;92.50;;;;;;2054181;28;20389;-80
2020/12/10 04:37:25;;;;;;;24.90;12.82;;;0.70;92.70;;;;;;2041576;29;20500;-81
2020/12/10 04:38:25;;;;;;;21.23;11.55;;;0.70;92.50;;;;;;2035638;29;20055;-80
2020/12/10 04:39:27;;;;;;;22.83;12.30;;;0.60;92.40;;;;;;2031852;29;20499;-81
2020/12/10 04:40:28;;;;;;;26.40;13.23;;;0.60;92.50;;;;;;2041600;28;20040;-81
2020/12/10 04:41:33;;;;;;;22.67;12.38;;;0.70;92.50;;;;;;2047583;28;20035;-80
2020/12/10 04:42:35;;;;;;;23.00;12.15;;;0.60;92.50;;;;;;2048391;28;20023;-81
2020/12/10 04:43:35;;;;;;;22.88;12.27;;;0.60;92.70;;;;;;2039044;29;20031;-80
2020/12/10 04:44:36;;;;;;;25.85;14.35;;;0.60;92.50;;;;;;2039735;28;20509;-81
2020/12/10 04:45:37;;;;;;;22.65;12.80;;;0.60;92.80;;;;;;2054209;28;20034;-81
2020/12/10 04:46:39;;;;;;;29.50;15.32;;;0.60;92.50;;;;;;2047790;28;20034;-80
2020/12/10 04:47:41;;;;;;;26.02;14.63;;;0.60;92.50;;;;;;2047728;28;20114;-80
2020/12/10 04:48:42;;;;;;;25.15;13.57;;;0.60;92.50;;;;;;2047900;28;20058;-81
2020/12/10 04:49:43;;;;;;;23.85;13.65;;;0.60;92.50;;;;;;2039421;29;20039;-81
2020/12/10 04:50:44;;;;;;;26.73;14.05;;;0.60;92.50;;;;;;2050005;28;20031;-81
2020/12/10 04:51:45;;;;;;;22.27;12.38;;;0.60;92.50;;;;;;2048263;28;20061;-81
2020/12/10 04:52:46;;;;;;;23.42;13.70;;;0.60;92.50;;;;;;2040447;28;20111;-81
2020/12/10 04:53:47;;;;;;;23.75;12.68;;;0.60;92.50;;;;;;2045808;28;20122;-81
2020/12/10 04:54:51;;;;;;;24.20;12.85;;;0.60;92.50;;;;;;2047859;28;20386;-80
2020/12/10 04:55:53;;;;;;;23.33;12.35;;;0.60;92.50;;;;;;2046991;28;22425;-81
2020/12/10 04:56:55;;;;;;;23.15;12.55;;;0.60;92.50;;;;;;2053276;28;20032;-80
2020/12/10 04:57:59;;;;;;;25.40;13.68;;;0.60;92.50;;;;;;2052852;28;20485;-80
2020/12/10 04:59:03;;;;;;;25.00;13.02;;;0.60;92.50;;;;;;2050653;28;20054;-81
2020/12/10 05:00:05;;;;;;;23.00;12.80;;;0.60;92.50;;;;;;2054441;28;20019;-80
2020/12/10 05:01:05;;;;;;;22.73;13.27;;;0.60;92.50;;;;;;2047734;29;20035;-80
2020/12/10 05:02:10;;;;;;;23.55;13.95;;;0.60;92.50;;;;;;2039665;29;20375;-80
2020/12/10 05:03:11;;;;;;;25.05;13.43;;;0.50;92.50;;;;;;2042983;29;20561;-80
2020/12/10 05:04:12;;;;;;;25.05;13.52;;;0.50;92.50;;;;;;2051894;28;20085;-80
2020/12/10 05:05:29;;;;;;;22.95;12.75;;;0.50;92.50;;;;;;2047492;28;20409;-81
2020/12/10 05:06:31;;;;;;;24.20;12.70;;;0.50;92.60;;;;;;2055018;28;20047;-81
2020/12/10 05:07:38;;;;;;;26.70;13.48;;;0.50;92.50;;;;;;2055912;28;20019;-81
2020/12/10 05:08:40;;;;;;;26.10;14.27;;;0.50;92.50;;;;;;2047634;28;20028;-81
2020/12/10 05:09:56;;;;;;;26.35;13.95;;;0.50;92.50;;;;;;2045198;28;20086;-80
2020/12/10 05:10:59;;;;;;;25.60;13.55;;;0.50;92.50;;;;;;2046180;28;20147;-81
2020/12/10 05:12:00;;;;;;;26.23;13.07;;;0.50;92.50;;;;;;2048583;28;20628;-80
2020/12/10 05:13:10;;;;;;;26.40;13.85;;;0.50;92.50;;;;;;2047387;28;20043;-80
2020/12/10 05:14:10;;;;;;;23.60;12.65;;;0.50;92.50;;;;;;2051406;28;20127;-81
2020/12/10 05:15:12;;;;;;;26.08;13.27;;;0.50;92.50;;;;;;2050206;29;20034;-81
2020/12/10 05:16:20;;;;;;;23.10;12.55;;;0.50;92.80;;;;;;2053662;28;20115;-80
2020/12/10 05:17:21;;;;;;;22.95;12.20;;;0.50;92.60;;;;;;2059654;28;20035;-80
2020/12/10 05:18:22;;;;;;;24.02;12.88;;;0.50;92.60;;;;;;2059777;28;20130;-80